Time;durP1;ratioP1;P1;durP2;ratioP2;P2;SDS_P1;SDS_P2;PMS_P1;PMS_P2;Temp;Humidity;BMP_temperature;BMP_pressure;BME280_temperature;BME280_humidity;BME280_pressure;Samples;Min_cycle;Max_cycle;Signal;HPM_P1;HPM_P2
2023/10/28 00:01:56;;;;;;;3.40;0.77;;;;;;;;;;5072095;28;20041;-70
2023/10/28 00:04:24;;;;;;;3.08;1.13;;;;;;;;;;5071808;28;20402;-70
2023/10/28 00:06:52;;;;;;;5.05;1.55;;;;;;;;;;5071966;28;20135;-70
2023/10/28 00:09:20;;;;;;;4.30;1.15;;;;;;;;;;5072062;28;20131;-69
2023/10/28 00:11:47;;;;;;;4.07;1.05;;;;;;;;;;5071789;28;20075;-69
2023/10/28 00:14:16;;;;;;;4.00;1.13;;;;;;;;;;5071866;28;20094;-69
2023/10/28 00:16:44;;;;;;;4.38;1.00;;;;;;;;;;5071744;28;20756;-70
2023/10/28 00:19:11;;;;;;;6.03;1.45;;;;;;;;;;5070631;28;20044;-69
2023/10/28 00:21:39;;;;;;;2.58;1.45;;;;;;;;;;5071719;28;20037;-69
2023/10/28 00:24:06;;;;;;;1.42;0.93;;;;;;;;;;5071767;28;20036;-70
2023/10/28 00:26:34;;;;;;;2.47;1.00;;;;;;;;;;5071725;28;20070;-70
2023/10/28 00:29:11;;;;;;;4.93;1.35;;;;;;;;;;5075293;28;20094;-69
2023/10/28 00:31:39;;;;;;;4.18;1.58;;;;;;;;;;5073908;28;20040;-68
2023/10/28 00:34:07;;;;;;;3.08;0.88;;;;;;;;;;5073816;28;20079;-68
2023/10/28 00:36:36;;;;;;;3.90;1.20;;;;;;;;;;5073836;28;20392;-68
2023/10/28 00:39:06;;;;;;;2.38;1.10;;;;;;;;;;5075169;28;20391;-69
2023/10/28 00:41:34;;;;;;;1.70;1.10;;;;;;;;;;5073760;28;20072;-68
2023/10/28 00:44:01;;;;;;;4.28;1.10;;;;;;;;;;5075011;28;20037;-68
2023/10/28 00:46:29;;;;;;;3.55;1.00;;;;;;;;;;5073623;28;20040;-68
2023/10/28 00:48:57;;;;;;;2.72;1.15;;;;;;;;;;5073608;28;20553;-69
2023/10/28 00:51:24;;;;;;;2.20;1.00;;;;;;;;;;5074845;28;20242;-70
2023/10/28 00:53:52;;;;;;;2.78;1.13;;;;;;;;;;5073496;28;20056;-68
2023/10/28 00:56:20;;;;;;;3.63;1.17;;;;;;;;;;5075074;28;20425;-68
2023/10/28 00:58:48;;;;;;;3.47;1.30;;;;;;;;;;5073535;28;20041;-69
2023/10/28 01:01:16;;;;;;;5.38;1.50;;;;;;;;;;5073532;28;20051;-68
2023/10/28 01:03:44;;;;;;;3.90;1.50;;;;;;;;;;5073403;28;20036;-68
2023/10/28 01:06:12;;;;;;;4.20;1.70;;;;;;;;;;5073501;28;20051;-68
2023/10/28 01:08:40;;;;;;;4.72;1.63;;;;;;;;;;5073474;28;20478;-70
2023/10/28 01:11:07;;;;;;;3.17;1.63;;;;;;;;;;5073247;28;20041;-69
2023/10/28 01:13:35;;;;;;;3.53;1.90;;;;;;;;;;5073255;28;20049;-69
2023/10/28 01:16:04;;;;;;;3.58;1.40;;;;;;;;;;5073502;28;20577;-69
2023/10/28 01:18:32;;;;;;;2.65;1.55;;;;;;;;;;5056675;28;20055;-69
2023/10/28 01:21:08;;;;;;;4.03;1.50;;;;;;;;;;5073054;28;20051;-70
2023/10/28 01:23:36;;;;;;;4.85;1.88;;;;;;;;;;5074374;28;20036;-70
2023/10/28 01:26:06;;;;;;;3.90;1.45;;;;;;;;;;5072875;28;20047;-70
2023/10/28 01:28:35;;;;;;;2.13;1.33;;;;;;;;;;5073086;28;20044;-70
2023/10/28 01:31:02;;;;;;;6.30;1.80;;;;;;;;;;5072790;28;20044;-71
2023/10/28 01:33:30;;;;;;;2.85;1.10;;;;;;;;;;5073045;28;20534;-70
2023/10/28 01:35:57;;;;;;;3.30;1.33;;;;;;;;;;5074082;28;20048;-70
2023/10/28 01:38:26;;;;;;;5.30;1.48;;;;;;;;;;5073458;28;20043;-70
2023/10/28 01:40:56;;;;;;;5.05;1.23;;;;;;;;;;5072377;28;20060;-70
2023/10/28 01:43:24;;;;;;;2.75;1.50;;;;;;;;;;5073786;28;20039;-70
2023/10/28 01:45:51;;;;;;;4.45;1.17;;;;;;;;;;5072431;28;20041;-71
2023/10/28 01:48:19;;;;;;;2.75;1.25;;;;;;;;;;5073687;28;20050;-70
2023/10/28 01:50:47;;;;;;;2.13;1.27;;;;;;;;;;5072275;28;20032;-70
2023/10/28 01:53:14;;;;;;;4.22;1.48;;;;;;;;;;5073804;28;20071;-71
2023/10/28 01:55:42;;;;;;;4.20;1.75;;;;;;;;;;5072188;28;20072;-70
2023/10/28 01:58:09;;;;;;;3.10;1.60;;;;;;;;;;5072247;28;20696;-69
2023/10/28 02:00:37;;;;;;;3.90;1.55;;;;;;;;;;5072183;28;20493;-70
2023/10/28 02:03:07;;;;;;;2.25;1.60;;;;;;;;;;5072186;28;20041;-70
2023/10/28 02:05:40;;;;;;;3.53;1.58;;;;;;;;;;5073365;28;20131;-69
2023/10/28 02:08:07;;;;;;;3.17;1.35;;;;;;;;;;5073378;28;20041;-71
2023/10/28 02:10:35;;;;;;;3.72;1.35;;;;;;;;;;5073278;28;20032;-70
2023/10/28 02:13:04;;;;;;;4.80;1.40;;;;;;;;;;5073324;28;20041;-71
2023/10/28 02:15:32;;;;;;;1.55;1.35;;;;;;;;;;5071748;28;20037;-70
2023/10/28 02:17:59;;;;;;;3.75;1.35;;;;;;;;;;5071936;28;20123;-69
2023/10/28 02:20:28;;;;;;;0.90;0.90;;;;;;;;;;5071852;28;20098;-69
2023/10/28 02:22:55;;;;;;;1.10;1.00;;;;;;;;;;5071760;28;20086;-69
2023/10/28 02:25:23;;;;;;;5.20;1.20;;;;;;;;;;5071713;28;20054;-69
2023/10/28 02:27:52;;;;;;;2.00;1.13;;;;;;;;;;5073021;28;20482;-70
2023/10/28 02:30:20;;;;;;;3.25;1.00;;;;;;;;;;5073046;28;20067;-70
2023/10/28 02:32:47;;;;;;;3.40;1.33;;;;;;;;;;5071712;28;20049;-71
2023/10/28 02:35:17;;;;;;;3.55;1.10;;;;;;;;;;5071665;28;20040;-70
2023/10/28 02:37:45;;;;;;;3.20;1.40;;;;;;;;;;5071538;28;20206;-70
2023/10/28 02:40:14;;;;;;;6.45;1.60;;;;;;;;;;5073061;28;20071;-70
2023/10/28 02:42:42;;;;;;;3.28;1.02;;;;;;;;;;5071469;28;20048;-71
2023/10/28 02:45:10;;;;;;;1.95;0.98;;;;;;;;;;5071516;28;20049;-71
2023/10/28 02:47:37;;;;;;;3.97;1.10;;;;;;;;;;5071263;28;20040;-70
2023/10/28 02:50:05;;;;;;;3.10;1.10;;;;;;;;;;5072182;28;20040;-71
2023/10/28 02:52:33;;;;;;;6.20;1.33;;;;;;;;;;5070757;28;20044;-69
2023/10/28 02:55:00;;;;;;;3.17;0.90;;;;;;;;;;5071299;28;20150;-71
2023/10/28 02:57:28;;;;;;;3.28;1.10;;;;;;;;;;5071268;28;20136;-70
2023/10/28 02:59:56;;;;;;;3.63;1.17;;;;;;;;;;5072497;28;20064;-70
2023/10/28 03:02:23;;;;;;;4.22;1.60;;;;;;;;;;5072548;28;20037;-71
2023/10/28 03:04:55;;;;;;;4.30;1.30;;;;;;;;;;5071420;28;20044;-70
2023/10/28 03:07:23;;;;;;;3.25;1.20;;;;;;;;;;5071070;28;20044;-69
2023/10/28 03:09:51;;;;;;;4.78;1.30;;;;;;;;;;5071078;28;20072;-70
2023/10/28 03:12:18;;;;;;;2.83;1.05;;;;;;;;;;5072559;28;20057;-70
2023/10/28 03:14:46;;;;;;;3.67;1.40;;;;;;;;;;5072424;28;20368;-70
2023/10/28 03:17:13;;;;;;;2.92;1.10;;;;;;;;;;5071023;28;20572;-71
2023/10/28 03:19:41;;;;;;;2.88;1.10;;;;;;;;;;5071087;28;20037;-71
2023/10/28 03:22:09;;;;;;;4.25;1.20;;;;;;;;;;5071020;28;20048;-71
2023/10/28 03:24:36;;;;;;;2.67;1.90;;;;;;;;;;5070949;28;20033;-71
2023/10/28 03:27:05;;;;;;;2.55;1.10;;;;;;;;;;5070961;28;20051;-71
2023/10/28 03:29:33;;;;;;;4.50;1.15;;;;;;;;;;5070897;28;20052;-71
2023/10/28 03:32:01;;;;;;;2.85;1.20;;;;;;;;;;5070802;28;20590;-71
2023/10/28 03:34:28;;;;;;;2.25;0.82;;;;;;;;;;5070978;28;20075;-70
2023/10/28 03:36:57;;;;;;;4.43;1.25;;;;;;;;;;5072053;28;20479;-71
2023/10/28 03:39:25;;;;;;;7.05;2.15;;;;;;;;;;5070968;28;20129;-71
2023/10/28 03:41:53;;;;;;;3.50;1.17;;;;;;;;;;5072126;28;20533;-71
2023/10/28 03:44:21;;;;;;;2.95;1.50;;;;;;;;;;5072162;28;20048;-70
2023/10/28 03:46:49;;;;;;;3.00;1.25;;;;;;;;;;5072084;28;20047;-71
2023/10/28 03:49:17;;;;;;;2.60;1.60;;;;;;;;;;5071949;28;20045;-71
2023/10/28 03:51:44;;;;;;;5.35;1.92;;;;;;;;;;5071969;28;20060;-71
2023/10/28 03:54:13;;;;;;;4.47;1.40;;;;;;;;;;5071955;28;20491;-71
2023/10/28 03:56:40;;;;;;;2.03;1.08;;;;;;;;;;5071859;28;20090;-71
2023/10/28 03:59:08;;;;;;;1.38;1.00;;;;;;;;;;5072113;28;20045;-71
2023/10/28 04:01:35;;;;;;;4.90;1.45;;;;;;;;;;5072022;28;20489;-72
2023/10/28 04:04:04;;;;;;;4.20;1.10;;;;;;;;;;5075818;28;20153;-71
2023/10/28 04:06:31;;;;;;;2.97;1.40;;;;;;;;;;5075690;28;20040;-71
2023/10/28 04:08:59;;;;;;;2.75;1.33;;;;;;;;;;5075809;28;20090;-69
2023/10/28 04:11:29;;;;;;;2.10;1.30;;;;;;;;;;5075491;28;20041;-70
2023/10/28 04:13:59;;;;;;;2.45;1.00;;;;;;;;;;5075584;28;20044;-71
2023/10/28 04:16:27;;;;;;;3.67;1.20;;;;;;;;;;5074130;28;20052;-71
2023/10/28 04:18:55;;;;;;;4.43;1.15;;;;;;;;;;5075025;28;20051;-71
2023/10/28 04:21:23;;;;;;;3.38;0.93;;;;;;;;;;5074163;28;20045;-71
2023/10/28 04:23:51;;;;;;;3.50;1.33;;;;;;;;;;5075229;28;20047;-71
2023/10/28 04:26:18;;;;;;;2.50;1.23;;;;;;;;;;5075328;28;20127;-71
2023/10/28 04:28:46;;;;;;;3.92;1.50;;;;;;;;;;5075220;28;20041;-71
2023/10/28 04:31:16;;;;;;;2.92;1.23;;;;;;;;;;5074989;28;20048;-71
2023/10/28 04:33:44;;;;;;;2.90;1.42;;;;;;;;;;5075041;28;20045;-71
2023/10/28 04:36:11;;;;;;;1.77;1.10;;;;;;;;;;5075351;28;20047;-71
2023/10/28 04:38:40;;;;;;;3.33;1.30;;;;;;;;;;5075295;28;20090;-71
2023/10/28 04:41:11;;;;;;;3.97;1.48;;;;;;;;;;5075071;28;20541;-71
2023/10/28 04:43:39;;;;;;;4.35;1.70;;;;;;;;;;5075209;28;20084;-71
2023/10/28 04:46:06;;;;;;;2.80;1.30;;;;;;;;;;5075018;28;20029;-71
2023/10/28 04:48:38;;;;;;;4.13;1.25;;;;;;;;;;5057620;28;20453;-71
2023/10/28 04:51:06;;;;;;;2.05;1.20;;;;;;;;;;5074423;28;20036;-71
2023/10/28 04:53:33;;;;;;;2.85;1.58;;;;;;;;;;5074756;28;20132;-71
2023/10/28 04:56:01;;;;;;;3.15;1.55;;;;;;;;;;5073357;28;20060;-71
2023/10/28 04:58:29;;;;;;;2.92;1.63;;;;;;;;;;5073688;28;20409;-71
2023/10/28 05:00:56;;;;;;;4.13;1.55;;;;;;;;;;5074631;28;20059;-71
2023/10/28 05:03:24;;;;;;;3.58;1.60;;;;;;;;;;5074801;28;20044;-71
2023/10/28 05:05:51;;;;;;;5.80;1.73;;;;;;;;;;5074641;28;20029;-71
2023/10/28 05:08:20;;;;;;;4.45;2.03;;;;;;;;;;5075408;28;20387;-70
2023/10/28 05:10:48;;;;;;;4.90;1.92;;;;;;;;;;5073420;28;20135;-70
2023/10/28 05:13:15;;;;;;;3.90;1.40;;;;;;;;;;5073719;28;20033;-71
2023/10/28 05:15:42;;;;;;;3.65;1.30;;;;;;;;;;5073998;28;20531;-70
2023/10/28 05:18:10;;;;;;;1.80;1.10;;;;;;;;;;5106927;28;20455;-72
2023/10/28 05:20:37;;;;;;;2.25;1.50;;;;;;;;;;5074162;28;20035;-70
2023/10/28 05:23:05;;;;;;;2.55;1.60;;;;;;;;;;5072809;28;20115;-70
2023/10/28 05:25:32;;;;;;;2.92;1.73;;;;;;;;;;5074324;28;20040;-69
2023/10/28 05:28:01;;;;;;;2.58;1.50;;;;;;;;;;5074192;28;20040;-70
2023/10/28 05:30:28;;;;;;;2.63;2.00;;;;;;;;;;5073599;28;20097;-70
2023/10/28 05:32:56;;;;;;;2.70;1.40;;;;;;;;;;5083687;28;20499;-69
2023/10/28 05:35:23;;;;;;;3.40;2.10;;;;;;;;;;5079525;28;20044;-68
2023/10/28 05:37:51;;;;;;;5.35;2.00;;;;;;;;;;5068496;28;20037;-69
2023/10/28 05:40:18;;;;;;;4.30;2.40;;;;;;;;;;5074062;28;20127;-71
2023/10/28 05:42:46;;;;;;;3.85;1.98;;;;;;;;;;5073929;28;20036;-70
2023/10/28 05:45:14;;;;;;;3.30;1.98;;;;;;;;;;5073845;28;20067;-70
2023/10/28 05:47:41;;;;;;;5.63;2.50;;;;;;;;;;5073856;28;20090;-71
2023/10/28 05:50:09;;;;;;;6.20;2.60;;;;;;;;;;5073421;28;20086;-71
2023/10/28 05:52:38;;;;;;;3.00;1.70;;;;;;;;;;5073605;28;20135;-71
2023/10/28 05:55:07;;;;;;;4.97;1.80;;;;;;;;;;5067057;28;20132;-71
2023/10/28 05:57:36;;;;;;;2.75;1.90;;;;;;;;;;5066716;28;20546;-73
2023/10/28 06:00:06;;;;;;;4.65;2.00;;;;;;;;;;5066885;28;20037;-71
2023/10/28 06:02:33;;;;;;;4.53;2.55;;;;;;;;;;5067741;28;20438;-71
2023/10/28 06:05:03;;;;;;;3.17;1.85;;;;;;;;;;5068117;28;20118;-73
2023/10/28 06:07:31;;;;;;;2.58;1.60;;;;;;;;;;5067184;28;20045;-73
2023/10/28 06:09:59;;;;;;;2.70;1.50;;;;;;;;;;5067705;28;20079;-72
2023/10/28 06:12:26;;;;;;;1.45;1.30;;;;;;;;;;5067687;28;20482;-72
2023/10/28 06:14:54;;;;;;;2.85;1.88;;;;;;;;;;5067673;28;20122;-72
2023/10/28 06:17:22;;;;;;;4.05;2.03;;;;;;;;;;5066191;28;20149;-72
2023/10/28 06:19:49;;;;;;;2.15;1.58;;;;;;;;;;5065733;28;20486;-72
2023/10/28 06:22:17;;;;;;;3.20;1.48;;;;;;;;;;5067911;28;20466;-73
2023/10/28 06:24:45;;;;;;;3.83;2.10;;;;;;;;;;5066265;28;20052;-72
2023/10/28 06:27:12;;;;;;;4.55;2.35;;;;;;;;;;5067722;28;20075;-72
2023/10/28 06:29:39;;;;;;;4.57;2.63;;;;;;;;;;5067663;28;20036;-72
2023/10/28 06:32:08;;;;;;;4.63;2.40;;;;;;;;;;5065981;28;20048;-72
2023/10/28 06:34:36;;;;;;;5.30;2.13;;;;;;;;;;5067716;28;20064;-72
2023/10/28 06:37:03;;;;;;;4.38;1.95;;;;;;;;;;5061126;28;20051;-71
2023/10/28 06:39:34;;;;;;;2.83;2.10;;;;;;;;;;5056779;28;20032;-71
2023/10/28 06:42:04;;;;;;;3.70;2.33;;;;;;;;;;5052926;28;20075;-70
2023/10/28 06:44:35;;;;;;;2.97;2.05;;;;;;;;;;5054374;28;20047;-70
2023/10/28 06:47:03;;;;;;;4.63;2.33;;;;;;;;;;5054448;28;20562;-70
2023/10/28 06:49:33;;;;;;;3.17;1.95;;;;;;;;;;5054097;28;20111;-71
2023/10/28 06:52:01;;;;;;;5.13;2.30;;;;;;;;;;5055540;28;20036;-71
2023/10/28 06:54:28;;;;;;;3.05;1.80;;;;;;;;;;5052499;28;20057;-72
2023/10/28 06:56:56;;;;;;;4.70;1.90;;;;;;;;;;5058388;28;20449;-70
2023/10/28 06:59:24;;;;;;;3.78;1.92;;;;;;;;;;5067359;28;20498;-70
2023/10/28 07:01:51;;;;;;;3.85;1.73;;;;;;;;;;5058422;28;20049;-70
2023/10/28 07:04:19;;;;;;;3.65;1.77;;;;;;;;;;5066845;28;20392;-70
2023/10/28 07:06:46;;;;;;;4.05;1.70;;;;;;;;;;5064360;28;20603;-69
2023/10/28 07:09:17;;;;;;;2.13;1.35;;;;;;;;;;5064531;28;20040;-69
2023/10/28 07:11:45;;;;;;;1.83;1.40;;;;;;;;;;5063554;28;20572;-71
2023/10/28 07:14:13;;;;;;;3.90;1.55;;;;;;;;;;5061441;28;20037;-70
2023/10/28 07:16:41;;;;;;;2.25;1.30;;;;;;;;;;5048470;28;20068;-70
2023/10/28 07:19:09;;;;;;;3.15;1.63;;;;;;;;;;5066205;28;20060;-70
2023/10/28 07:21:37;;;;;;;4.22;1.50;;;;;;;;;;5066446;28;20036;-70
2023/10/28 07:24:11;;;;;;;3.58;1.67;;;;;;;;;;5061575;28;20630;-71
2023/10/28 07:26:39;;;;;;;3.70;1.40;;;;;;;;;;5053407;28;20126;-70
2023/10/28 07:29:08;;;;;;;2.35;1.70;;;;;;;;;;5063807;28;20114;-72
2023/10/28 07:31:42;;;;;;;2.25;1.75;;;;;;;;;;5051437;28;20406;-71
2023/10/28 07:34:10;;;;;;;4.63;1.63;;;;;;;;;;5065285;28;20402;-72
2023/10/28 07:36:37;;;;;;;4.25;1.77;;;;;;;;;;5065337;28;20056;-73
2023/10/28 07:39:05;;;;;;;3.10;1.67;;;;;;;;;;5066280;28;20053;-71
2023/10/28 07:41:32;;;;;;;2.55;1.80;;;;;;;;;;5069711;28;20075;-71
2023/10/28 07:44:00;;;;;;;3.67;1.92;;;;;;;;;;5054456;28;20067;-71
2023/10/28 07:46:30;;;;;;;2.60;1.73;;;;;;;;;;5058414;28;20120;-71
2023/10/28 07:48:58;;;;;;;4.57;1.73;;;;;;;;;;5055451;28;20045;-71
2023/10/28 07:51:26;;;;;;;5.43;1.80;;;;;;;;;;5061744;28;20648;-71
2023/10/28 07:53:53;;;;;;;2.97;1.73;;;;;;;;;;5065634;28;20054;-71
2023/10/28 07:56:21;;;;;;;2.42;1.83;;;;;;;;;;5060755;28;20131;-72
2023/10/28 07:58:51;;;;;;;2.22;1.67;;;;;;;;;;5069187;28;20036;-71
2023/10/28 08:01:19;;;;;;;6.30;1.50;;;;;;;;;;5068520;28;20120;-71
2023/10/28 08:03:47;;;;;;;2.92;1.02;;;;;;;;;;5068298;28;20051;-71
2023/10/28 08:06:15;;;;;;;3.45;2.00;;;;;;;;;;5052021;28;20466;-71
2023/10/28 08:09:00;;;;;;;;;;;;;;;;;;5052621;28;20036;-72
2023/10/28 08:11:29;;;;;;;3.55;1.63;;;;;;;;;;5056489;28;19947;-70
2023/10/28 08:13:57;;;;;;;3.85;1.50;;;;;;;;;;5062073;28;21054;-71
2023/10/28 08:16:25;;;;;;;2.72;1.40;;;;;;;;;;5056881;28;20029;-71
2023/10/28 08:18:53;;;;;;;3.03;1.70;;;;;;;;;;5061603;28;20033;-72
2023/10/28 08:21:21;;;;;;;7.15;1.90;;;;;;;;;;5057071;28;20403;-70
2023/10/28 08:23:49;;;;;;;5.38;2.90;;;;;;;;;;5063183;28;20086;-71
2023/10/28 08:26:20;;;;;;;5.53;3.35;;;;;;;;;;5065398;28;20035;-71
2023/10/28 08:28:50;;;;;;;4.80;2.90;;;;;;;;;;5067903;28;20822;-72
2023/10/28 08:31:17;;;;;;;3.78;2.20;;;;;;;;;;5059472;28;20052;-71
2023/10/28 08:33:45;;;;;;;4.88;1.42;;;;;;;;;;5063852;28;20124;-70
2023/10/28 08:36:12;;;;;;;6.93;1.98;;;;;;;;;;5062531;28;20036;-70
2023/10/28 08:38:40;;;;;;;2.47;2.20;;;;;;;;;;5060846;28;20037;-72
2023/10/28 08:41:08;;;;;;;4.53;2.30;;;;;;;;;;5063564;28;20806;-71
2023/10/28 08:43:36;;;;;;;3.53;2.30;;;;;;;;;;5054156;28;20276;-72
2023/10/28 08:46:05;;;;;;;2.88;2.05;;;;;;;;;;5060005;28;20133;-70
2023/10/28 08:48:33;;;;;;;3.95;1.55;;;;;;;;;;5063762;28;20033;-71
2023/10/28 08:51:01;;;;;;;2.65;1.65;;;;;;;;;;5061109;28;20049;-71
2023/10/28 08:53:29;;;;;;;4.53;1.77;;;;;;;;;;5059971;28;20041;-71
2023/10/28 08:56:00;;;;;;;2.15;1.30;;;;;;;;;;5059163;28;20572;-71
2023/10/28 08:58:28;;;;;;;4.40;1.67;;;;;;;;;;5069548;28;20491;-71
2023/10/28 09:00:59;;;;;;;2.63;1.27;;;;;;;;;;5069263;28;20043;-72
2023/10/28 09:03:27;;;;;;;3.83;1.90;;;;;;;;;;5062626;28;20049;-71
2023/10/28 09:05:54;;;;;;;2.80;1.20;;;;;;;;;;5069478;28;20048;-71
2023/10/28 09:08:27;;;;;;;1.25;1.10;;;;;;;;;;5068898;28;20123;-72
2023/10/28 09:10:56;;;;;;;4.93;1.60;;;;;;;;;;5066062;28;20070;-72
2023/10/28 09:13:24;;;;;;;3.63;1.15;;;;;;;;;;5069909;28;20163;-72
2023/10/28 09:15:52;;;;;;;2.83;1.10;;;;;;;;;;5056385;28;20058;-72
2023/10/28 09:18:20;;;;;;;3.78;1.10;;;;;;;;;;5055291;28;20028;-71
2023/10/28 09:20:47;;;;;;;2.40;1.20;;;;;;;;;;5056442;28;20085;-71
2023/10/28 09:23:15;;;;;;;2.67;1.10;;;;;;;;;;5052197;28;20124;-72
2023/10/28 09:25:43;;;;;;;2.83;1.38;;;;;;;;;;5050669;28;20372;-72
2023/10/28 09:28:17;;;;;;;2.13;1.50;;;;;;;;;;5065044;28;20037;-71
2023/10/28 09:30:46;;;;;;;1.85;1.40;;;;;;;;;;5058530;28;20159;-71
2023/10/28 09:33:17;;;;;;;3.35;1.45;;;;;;;;;;5051452;28;20561;-71
2023/10/28 09:35:45;;;;;;;4.30;1.95;;;;;;;;;;5050121;28;20048;-71
2023/10/28 09:38:13;;;;;;;3.22;1.80;;;;;;;;;;5050983;28;20037;-71
2023/10/28 09:40:41;;;;;;;3.25;2.10;;;;;;;;;;5049662;28;20055;-71
2023/10/28 09:43:09;;;;;;;2.25;1.75;;;;;;;;;;5050683;28;20033;-71
2023/10/28 09:45:36;;;;;;;5.47;1.88;;;;;;;;;;5060808;28;20041;-70
2023/10/28 09:48:16;;;;;;;7.35;2.78;;;;;;;;;;5048627;28;20037;-71
2023/10/28 09:50:50;;;;;;;1.90;1.10;;;;;;;;;;5050376;28;20513;-70
2023/10/28 09:53:18;;;;;;;;;;;;;;;;;;5050732;28;20041;-70
2023/10/28 09:55:47;;;;;;;6.43;1.67;;;;;;;;;;5055574;28;20075;-70
2023/10/28 09:58:41;;;;;;;1.50;1.15;;;;;;;;;;5068559;28;20044;-70
2023/10/28 10:01:26;;;;;;;2.97;1.00;;;;;;;;;;5063446;28;20479;-70
2023/10/28 10:04:13;;;;;;;5.53;1.38;;;;;;;;;;5081777;28;20124;-69
2023/10/28 10:06:42;;;;;;;1.25;0.90;;;;;;;;;;5074202;28;20070;-72
2023/10/28 10:09:18;;;;;;;6.43;1.65;;;;;;;;;;5086387;28;20090;-72
2023/10/28 10:11:45;;;;;;;3.83;1.58;;;;;;;;;;5079670;28;20040;-83
2023/10/28 10:14:13;;;;;;;3.88;1.70;;;;;;;;;;5082021;28;20513;-73
2023/10/28 10:16:41;;;;;;;2.60;2.20;;;;;;;;;;5079125;28;20036;-72
2023/10/28 10:19:12;;;;;;;3.45;2.20;;;;;;;;;;5082762;28;20417;-72
2023/10/28 10:21:48;;;;;;;3.35;1.60;;;;;;;;;;5082298;28;20064;-72
2023/10/28 10:24:17;;;;;;;4.68;2.00;;;;;;;;;;5079974;28;20051;-75
2023/10/28 10:26:53;;;;;;;2.92;1.65;;;;;;;;;;5082256;28;20046;-73
2023/10/28 10:29:21;;;;;;;4.47;2.10;;;;;;;;;;5080712;28;20060;-72
2023/10/28 10:31:49;;;;;;;4.30;2.40;;;;;;;;;;5080217;28;20071;-72
2023/10/28 10:34:30;;;;;;;2.25;1.58;;;;;;;;;;5075392;28;20115;-72
2023/10/28 10:36:58;;;;;;;3.65;2.72;;;;;;;;;;5072851;28;20098;-73
2023/10/28 10:39:26;;;;;;;16.38;12.40;;;;;;;;;;5075223;28;20394;-73
2023/10/28 10:41:54;;;;;;;1.55;1.15;;;;;;;;;;5091311;28;20047;-72
2023/10/28 10:44:38;;;;;;;3.58;2.15;;;;;;;;;;5092620;28;20044;-72
2023/10/28 10:47:08;;;;;;;5.18;2.40;;;;;;;;;;5092875;28;20036;-72
2023/10/28 10:49:38;;;;;;;1.27;1.02;;;;;;;;;;5092968;28;20118;-73
2023/10/28 10:52:08;;;;;;;4.90;2.38;;;;;;;;;;5092894;28;20048;-69
2023/10/28 10:54:38;;;;;;;4.05;2.67;;;;;;;;;;5088308;28;20059;-71
2023/10/28 10:57:07;;;;;;;1.83;1.35;;;;;;;;;;5090596;28;20093;-72
2023/10/28 10:59:36;;;;;;;1.30;1.10;;;;;;;;;;5092700;28;20379;-71
2023/10/28 11:02:04;;;;;;;3.35;2.15;;;;;;;;;;5086747;28;20127;-71
2023/10/28 11:04:36;;;;;;;1.48;1.05;;;;;;;;;;5091486;28;20028;-70
2023/10/28 11:07:04;;;;;;;2.55;1.13;;;;;;;;;;5080610;28;20040;-69
2023/10/28 11:09:41;;;;;;;3.17;2.33;;;;;;;;;;5080745;28;20043;-70
2023/10/28 11:12:09;;;;;;;6.22;3.65;;;;;;;;;;5064577;28;20417;-70
2023/10/28 11:14:37;;;;;;;4.43;2.20;;;;;;;;;;5071521;28;20044;-69
2023/10/28 11:17:04;;;;;;;2.17;1.50;;;;;;;;;;5071084;28;20514;-70
2023/10/28 11:19:32;;;;;;;4.00;1.67;;;;;;;;;;5072392;28;20064;-70
2023/10/28 11:22:00;;;;;;;2.63;1.25;;;;;;;;;;5072341;28;20048;-70
2023/10/28 11:24:27;;;;;;;2.25;1.50;;;;;;;;;;5072559;28;20044;-70
2023/10/28 11:26:57;;;;;;;4.07;1.90;;;;;;;;;;5072389;28;20090;-70
2023/10/28 11:29:24;;;;;;;4.25;2.30;;;;;;;;;;5072410;28;20460;-70
2023/10/28 11:31:53;;;;;;;8.50;3.60;;;;;;;;;;5072320;28;20032;-70
2023/10/28 11:34:20;;;;;;;3.85;2.55;;;;;;;;;;5072286;28;20049;-70
2023/10/28 11:36:47;;;;;;;5.88;2.75;;;;;;;;;;5072176;28;20115;-71
2023/10/28 11:39:17;;;;;;;5.63;2.80;;;;;;;;;;5071986;28;20052;-69
2023/10/28 11:41:49;;;;;;;3.40;1.75;;;;;;;;;;5072107;28;20471;-72
2023/10/28 11:44:17;;;;;;;4.80;2.70;;;;;;;;;;5072303;28;20044;-71
2023/10/28 11:46:46;;;;;;;5.50;2.70;;;;;;;;;;5072104;28;20078;-71
2023/10/28 11:49:14;;;;;;;2.90;1.50;;;;;;;;;;5072248;28;20047;-71
2023/10/28 11:51:45;;;;;;;156.52;44.13;;;;;;;;;;5072431;28;20051;-71
2023/10/28 11:54:12;;;;;;;3.55;1.40;;;;;;;;;;5070576;28;20083;-69
2023/10/28 11:56:40;;;;;;;2.92;2.05;;;;;;;;;;5071902;28;20041;-70
2023/10/28 11:59:07;;;;;;;32.70;22.48;;;;;;;;;;5072188;28;20036;-69
2023/10/28 12:01:36;;;;;;;3.50;1.70;;;;;;;;;;5072273;28;20427;-70
2023/10/28 12:04:07;;;;;;;3.35;1.63;;;;;;;;;;5072190;28;20047;-71
2023/10/28 12:06:35;;;;;;;3.88;1.83;;;;;;;;;;5071014;28;20041;-70
2023/10/28 12:09:05;;;;;;;5.53;1.20;;;;;;;;;;5071928;28;20127;-69
2023/10/28 12:11:33;;;;;;;7.30;1.40;;;;;;;;;;5071792;28;20047;-70
2023/10/28 12:14:00;;;;;;;3.17;1.88;;;;;;;;;;5072077;28;20044;-68
2023/10/28 12:16:29;;;;;;;2.90;1.33;;;;;;;;;;5071879;28;20044;-69
2023/10/28 12:18:56;;;;;;;6.30;2.40;;;;;;;;;;5070475;28;20094;-69
2023/10/28 12:21:25;;;;;;;2.75;1.63;;;;;;;;;;5071680;28;20045;-69
2023/10/28 12:23:55;;;;;;;2.85;1.40;;;;;;;;;;5072378;28;20044;-69
2023/10/28 12:26:22;;;;;;;4.28;1.70;;;;;;;;;;5075261;28;20048;-68
2023/10/28 12:28:52;;;;;;;3.75;2.47;;;;;;;;;;5075254;28;20505;-69
2023/10/28 12:31:22;;;;;;;5.55;2.88;;;;;;;;;;5075414;28;20041;-68
2023/10/28 12:33:50;;;;;;;5.10;1.63;;;;;;;;;;5075171;28;20406;-69
2023/10/28 12:36:18;;;;;;;5.28;1.73;;;;;;;;;;5075264;28;20056;-68
2023/10/28 12:38:45;;;;;;;3.17;1.73;;;;;;;;;;5075038;28;20507;-68
2023/10/28 12:41:13;;;;;;;5.57;1.92;;;;;;;;;;5075374;28;20052;-68
2023/10/28 12:43:41;;;;;;;3.17;1.27;;;;;;;;;;5075234;28;20052;-69
2023/10/28 12:46:09;;;;;;;3.83;2.10;;;;;;;;;;5075048;28;20071;-68
2023/10/28 12:48:37;;;;;;;2.72;2.20;;;;;;;;;;5075165;28;20040;-69
2023/10/28 12:51:04;;;;;;;4.75;2.30;;;;;;;;;;5076341;28;20071;-68
2023/10/28 12:53:34;;;;;;;5.18;3.65;;;;;;;;;;5078458;28;20110;-70
2023/10/28 12:56:02;;;;;;;6.80;2.72;;;;;;;;;;5084066;28;20058;-68
2023/10/28 12:58:31;;;;;;;6.15;2.88;;;;;;;;;;5086711;28;20044;-68
2023/10/28 13:00:59;;;;;;;7.93;3.33;;;;;;;;;;5074588;28;20055;-67
2023/10/28 13:03:26;;;;;;;5.40;2.20;;;;;;;;;;5079688;28;20123;-67
2023/10/28 13:05:55;;;;;;;6.90;2.30;;;;;;;;;;5086850;28;20050;-67
2023/10/28 13:08:23;;;;;;;6.10;2.60;;;;;;;;;;5085553;28;20052;-67
2023/10/28 13:10:52;;;;;;;4.80;2.70;;;;;;;;;;5076792;28;20029;-69
2023/10/28 13:13:22;;;;;;;5.85;2.83;;;;;;;;;;5072580;28;20040;-69
2023/10/28 13:15:49;;;;;;;4.80;2.13;;;;;;;;;;5073485;28;20040;-68
2023/10/28 13:18:17;;;;;;;7.45;3.30;;;;;;;;;;5075640;28;20518;-66
2023/10/28 13:20:44;;;;;;;7.00;3.75;;;;;;;;;;5075791;28;20049;-67
2023/10/28 13:23:12;;;;;;;5.32;2.83;;;;;;;;;;5073508;28;20044;-67
2023/10/28 13:25:39;;;;;;;5.45;2.17;;;;;;;;;;5077769;28;20036;-67
2023/10/28 13:28:09;;;;;;;3.65;1.80;;;;;;;;;;5075435;28;20045;-68
2023/10/28 13:30:38;;;;;;;8.43;2.05;;;;;;;;;;5073026;28;20410;-68
2023/10/28 13:33:07;;;;;;;4.90;1.58;;;;;;;;;;5074097;28;20090;-68
2023/10/28 13:35:35;;;;;;;3.47;1.45;;;;;;;;;;5073300;28;20072;-68
2023/10/28 13:38:02;;;;;;;3.53;1.77;;;;;;;;;;5074052;28;20068;-67
2023/10/28 13:40:33;;;;;;;6.40;2.10;;;;;;;;;;5073992;28;20043;-68
2023/10/28 13:43:02;;;;;;;8.38;2.40;;;;;;;;;;5073987;28;20053;-68
2023/10/28 13:45:30;;;;;;;4.75;2.55;;;;;;;;;;5073870;28;20041;-67
2023/10/28 13:47:57;;;;;;;5.93;1.90;;;;;;;;;;5073883;28;20169;-68
2023/10/28 13:50:26;;;;;;;6.53;3.45;;;;;;;;;;5074012;28;20141;-68
2023/10/28 13:52:54;;;;;;;6.07;2.03;;;;;;;;;;5073969;28;20043;-68
2023/10/28 13:55:22;;;;;;;5.05;2.70;;;;;;;;;;5073590;28;20072;-68
2023/10/28 13:57:50;;;;;;;4.10;2.10;;;;;;;;;;5073631;28;20517;-68
2023/10/28 14:00:17;;;;;;;5.78;2.88;;;;;;;;;;5072600;28;20045;-67
2023/10/28 14:02:45;;;;;;;10.48;5.07;;;;;;;;;;5073518;28;20129;-67
2023/10/28 14:05:13;;;;;;;6.25;2.90;;;;;;;;;;5073491;28;20060;-67
2023/10/28 14:07:41;;;;;;;6.00;3.00;;;;;;;;;;5073563;28;20395;-67
2023/10/28 14:10:10;;;;;;;6.50;2.47;;;;;;;;;;5073498;28;20157;-67
2023/10/28 14:12:41;;;;;;;5.05;2.40;;;;;;;;;;5073392;28;20423;-67
2023/10/28 14:15:10;;;;;;;5.70;2.67;;;;;;;;;;5073334;28;20049;-67
2023/10/28 14:17:39;;;;;;;7.45;3.65;;;;;;;;;;5073213;28;20037;-67
2023/10/28 14:20:09;;;;;;;6.57;3.47;;;;;;;;;;5072212;28;20403;-67
2023/10/28 14:22:37;;;;;;;8.32;4.75;;;;;;;;;;5073153;28;20095;-67
2023/10/28 14:25:08;;;;;;;25.65;13.30;;;;;;;;;;5073079;28;20128;-67
2023/10/28 14:27:36;;;;;;;12.73;6.72;;;;;;;;;;5066118;28;20040;-68
2023/10/28 14:30:05;;;;;;;15.68;5.80;;;;;;;;;;5076402;28;20041;-69
2023/10/28 14:32:38;;;;;;;15.60;6.38;;;;;;;;;;5066995;28;20048;-70
2023/10/28 14:35:07;;;;;;;12.27;5.07;;;;;;;;;;5066987;28;20040;-69
2023/10/28 14:37:36;;;;;;;9.85;5.18;;;;;;;;;;5066898;28;20053;-69
2023/10/28 14:40:05;;;;;;;4.10;2.92;;;;;;;;;;5065257;28;20044;-68
2023/10/28 14:42:35;;;;;;;7.55;3.42;;;;;;;;;;5057023;28;20095;-69
2023/10/28 14:45:02;;;;;;;5.63;2.13;;;;;;;;;;5066358;28;20057;-68
2023/10/28 14:47:33;;;;;;;7.22;2.00;;;;;;;;;;5066974;28;20031;-69
2023/10/28 14:50:02;;;;;;;3.75;1.95;;;;;;;;;;5065937;28;20435;-68
2023/10/28 14:52:29;;;;;;;7.03;2.33;;;;;;;;;;5066876;28;20044;-68